Deer Park, Maryland
Current Conditions -  °F | °C
As of 4:25 PM on Monday 24 Nov 2014 (Local Time) from K2G4 Reporting Station
Broken Clouds Broken Clouds  
Wind Chill: 59°   Ceiling: 6000
Heat Index: 59°   Visibility: 10mi
Dew Point: 32°   Wind: 9mph
Humidity: 36%   Direction: 240°WSW
Pressure: 29.62"   Gusts: 21mph
Location:  39.3804°N, 79.3888°W
Report Text: K2G4 242125Z AUTO 24008G18KT 222V282 10SM BKN060 BKN070 BKN080 15/00 A2962 RMK AO1
Loading
Personal Weather Stations






























Interactive Weather Map New forecast layout! Learn more

10-Day Weather Forecast

Advertisements
Track Severe Weather on mobile